Time;durP1;ratioP1;P1;durP2;ratioP2;P2;SDS_P1;SDS_P2;PMS_P1;PMS_P2;Temp;Humidity;BMP_temperature;BMP_pressure;BME280_temperature;BME280_humidity;BME280_pressure;Samples;Min_cycle;Max_cycle;Signal;HPM_P1;HPM_P2
2024/04/13 00:00:17;;;;;;;14.30;7.15;;;;;;;;;;5417649;26;20072;-77
2024/04/13 00:02:44;;;;;;;11.35;6.65;;;;;;;;;;5416145;26;20311;-77
2024/04/13 00:05:11;;;;;;;13.73;6.70;;;;;;;;;;5413787;26;20054;-77
2024/04/13 00:07:38;;;;;;;14.48;6.53;;;;;;;;;;5413974;26;20000;-77
2024/04/13 00:10:06;;;;;;;12.63;6.00;;;;;;;;;;5413431;26;20068;-77
2024/04/13 00:12:33;;;;;;;18.10;7.93;;;;;;;;;;5414060;26;19996;-77
2024/04/13 00:15:00;;;;;;;14.98;7.43;;;;;;;;;;5414001;26;20007;-77
2024/04/13 00:17:27;;;;;;;15.50;8.13;;;;;;;;;;5413472;26;20000;-77
2024/04/13 00:19:54;;;;;;;15.52;7.80;;;;;;;;;;5417391;26;20002;-77
2024/04/13 00:22:21;;;;;;;20.30;7.78;;;;;;;;;;5417360;26;20318;-77
2024/04/13 00:24:48;;;;;;;15.90;7.82;;;;;;;;;;5417556;26;20398;-77
2024/04/13 00:27:16;;;;;;;38.35;10.50;;;;;;;;;;5416899;26;20068;-77
2024/04/13 00:29:43;;;;;;;32.88;9.00;;;;;;;;;;5417693;26;19999;-76
2024/04/13 00:32:11;;;;;;;37.33;10.18;;;;;;;;;;5416977;26;19995;-77
2024/04/13 00:34:37;;;;;;;44.28;9.52;;;;;;;;;;5415700;26;19999;-77
2024/04/13 00:37:04;;;;;;;19.27;9.23;;;;;;;;;;5416158;26;20011;-76
2024/04/13 00:39:31;;;;;;;19.42;8.77;;;;;;;;;;5417384;26;19996;-77
2024/04/13 00:41:59;;;;;;;18.88;8.63;;;;;;;;;;5415609;26;20003;-76
2024/04/13 00:44:25;;;;;;;24.83;8.82;;;;;;;;;;5417242;26;20072;-77
2024/04/13 00:47:04;;;;;;;77.78;10.48;;;;;;;;;;5417402;26;20520;-76
2024/04/13 00:49:39;;;;;;;60.75;11.48;;;;;;;;;;5417038;26;20011;-77
2024/04/13 00:52:11;;;;;;;89.43;12.57;;;;;;;;;;5416621;26;20014;-76
2024/04/13 00:54:40;;;;;;;149.52;11.10;;;;;;;;;;5415500;26;20003;-77
2024/04/13 00:57:08;;;;;;;80.30;12.15;;;;;;;;;;5416732;26;20007;-77
2024/04/13 00:59:36;;;;;;;89.60;9.03;;;;;;;;;;5415306;26;20031;-77
2024/04/13 01:02:11;;;;;;;92.78;8.90;;;;;;;;;;5416758;26;19995;-77
2024/04/13 01:04:38;;;;;;;18.52;8.88;;;;;;;;;;5417007;26;20003;-77
2024/04/13 01:07:05;;;;;;;17.05;8.23;;;;;;;;;;5416658;26;20077;-77
2024/04/13 01:09:32;;;;;;;15.85;8.05;;;;;;;;;;5416816;26;20003;-76
2024/04/13 01:11:59;;;;;;;12.68;7.43;;;;;;;;;;5416854;26;20431;-77
2024/04/13 01:14:26;;;;;;;11.23;6.50;;;;;;;;;;5416503;26;20059;-77
2024/04/13 01:16:53;;;;;;;11.40;6.65;;;;;;;;;;5416949;26;20422;-77
2024/04/13 01:19:20;;;;;;;10.18;6.72;;;;;;;;;;5416469;26;20376;-77
2024/04/13 01:21:46;;;;;;;13.43;7.68;;;;;;;;;;5416804;26;20003;-77
2024/04/13 01:24:13;;;;;;;15.23;7.72;;;;;;;;;;5416212;26;20012;-77
2024/04/13 01:26:41;;;;;;;13.60;7.72;;;;;;;;;;5416339;26;19996;-77
2024/04/13 01:29:08;;;;;;;11.43;6.45;;;;;;;;;;5414573;26;19996;-77
2024/04/13 01:31:37;;;;;;;10.88;6.60;;;;;;;;;;5416602;26;20015;-77
2024/04/13 01:34:05;;;;;;;11.27;6.22;;;;;;;;;;5416007;26;19999;-77
2024/04/13 01:36:39;;;;;;;11.52;6.55;;;;;;;;;;5414758;26;20483;-76
2024/04/13 01:39:12;;;;;;;13.02;7.05;;;;;;;;;;5416148;26;20458;-77
2024/04/13 01:41:42;;;;;;;11.93;6.95;;;;;;;;;;5416473;26;20011;-77
2024/04/13 01:44:09;;;;;;;15.07;6.88;;;;;;;;;;5415959;26;20072;-77
2024/04/13 01:46:36;;;;;;;14.63;7.00;;;;;;;;;;5416279;26;19999;-77
2024/04/13 01:49:04;;;;;;;13.00;6.10;;;;;;;;;;5417202;26;20067;-77
2024/04/13 01:51:32;;;;;;;16.88;7.43;;;;;;;;;;5419654;26;20007;-77
2024/04/13 01:53:59;;;;;;;14.32;5.93;;;;;;;;;;5419617;26;20032;-77
2024/04/13 01:56:27;;;;;;;11.60;6.32;;;;;;;;;;5419143;26;20018;-77
2024/04/13 01:58:54;;;;;;;18.02;7.25;;;;;;;;;;5419952;26;20392;-77
2024/04/13 02:01:22;;;;;;;10.65;6.05;;;;;;;;;;5419242;26;19995;-77
2024/04/13 02:03:49;;;;;;;12.02;5.95;;;;;;;;;;5419747;26;20295;-77
2024/04/13 02:06:16;;;;;;;13.93;7.13;;;;;;;;;;5419300;26;20004;-76
2024/04/13 02:08:43;;;;;;;18.00;7.38;;;;;;;;;;5419500;26;19995;-77
2024/04/13 02:11:10;;;;;;;16.90;7.95;;;;;;;;;;5419139;26;20007;-77
2024/04/13 02:13:37;;;;;;;20.35;8.93;;;;;;;;;;5419809;26;20080;-77
2024/04/13 02:16:04;;;;;;;28.63;11.48;;;;;;;;;;5419059;26;20373;-76
2024/04/13 02:18:31;;;;;;;77.57;13.40;;;;;;;;;;5419385;26;20076;-77
2024/04/13 02:20:59;;;;;;;38.70;12.80;;;;;;;;;;5419554;26;20391;-77
2024/04/13 02:23:26;;;;;;;26.60;12.57;;;;;;;;;;5418868;26;20007;-77
2024/04/13 02:25:53;;;;;;;79.03;14.23;;;;;;;;;;5419281;26;19995;-77
2024/04/13 02:28:20;;;;;;;33.65;12.45;;;;;;;;;;5418820;26;20076;-77
2024/04/13 02:30:47;;;;;;;33.88;12.43;;;;;;;;;;5419209;26;20009;-77
2024/04/13 02:33:14;;;;;;;20.75;10.85;;;;;;;;;;5418847;26;20040;-77
2024/04/13 02:35:42;;;;;;;23.70;10.60;;;;;;;;;;5419237;26;19999;-77
2024/04/13 02:38:09;;;;;;;23.98;10.07;;;;;;;;;;5416884;26;20217;-77
2024/04/13 02:40:35;;;;;;;20.40;10.35;;;;;;;;;;5419418;26;20069;-76
2024/04/13 02:43:03;;;;;;;15.77;8.23;;;;;;;;;;5417297;26;19996;-76
2024/04/13 02:45:29;;;;;;;20.10;10.13;;;;;;;;;;5418736;26;20080;-76
2024/04/13 02:47:56;;;;;;;21.27;9.50;;;;;;;;;;5419009;26;19999;-76
2024/04/13 02:50:23;;;;;;;20.98;9.45;;;;;;;;;;5418476;26;20036;-77
2024/04/13 02:52:52;;;;;;;17.38;9.20;;;;;;;;;;5419172;26;20000;-76
2024/04/13 02:55:19;;;;;;;;;;;;;;;;;;5418915;26;20072;-77
2024/04/13 02:57:46;;;;;;;16.90;8.73;;;;;;;;;;5418939;26;19929;-77
2024/04/13 03:00:13;;;;;;;20.70;9.35;;;;;;;;;;5417721;26;20064;-77
2024/04/13 03:02:40;;;;;;;14.83;9.60;;;;;;;;;;5417187;26;19999;-77
2024/04/13 03:05:07;;;;;;;15.80;8.48;;;;;;;;;;5418392;26;20084;-76
2024/04/13 03:07:34;;;;;;;16.38;7.93;;;;;;;;;;5418874;26;20000;-77
2024/04/13 03:10:01;;;;;;;18.88;9.32;;;;;;;;;;5418720;26;20018;-77
2024/04/13 03:12:28;;;;;;;20.55;10.13;;;;;;;;;;5418274;26;20447;-77
2024/04/13 03:14:55;;;;;;;20.88;10.00;;;;;;;;;;5416991;26;20045;-77
2024/04/13 03:17:21;;;;;;;20.17;10.25;;;;;;;;;;5418084;26;19995;-77
2024/04/13 03:19:51;;;;;;;19.00;11.00;;;;;;;;;;5418444;26;20427;-77
2024/04/13 03:22:20;;;;;;;20.77;10.25;;;;;;;;;;5418326;26;20011;-77
2024/04/13 03:24:47;;;;;;;18.70;9.70;;;;;;;;;;5418317;26;20011;-76
2024/04/13 03:27:14;;;;;;;20.90;10.13;;;;;;;;;;5417758;26;20431;-77
2024/04/13 03:29:40;;;;;;;25.30;11.00;;;;;;;;;;5418254;26;19999;-77
2024/04/13 03:32:07;;;;;;;15.30;9.45;;;;;;;;;;5417993;26;20007;-77
2024/04/13 03:34:34;;;;;;;13.23;9.00;;;;;;;;;;5418263;26;20377;-76
2024/04/13 03:37:01;;;;;;;19.63;10.38;;;;;;;;;;5418525;26;20009;-76
2024/04/13 03:39:28;;;;;;;16.40;9.32;;;;;;;;;;5418103;26;20007;-77
2024/04/13 03:41:55;;;;;;;18.33;9.82;;;;;;;;;;5418227;26;20008;-77
2024/04/13 03:44:22;;;;;;;16.85;10.05;;;;;;;;;;5415934;26;20466;-76
2024/04/13 03:46:49;;;;;;;25.15;11.40;;;;;;;;;;5418222;26;20024;-76
2024/04/13 03:49:16;;;;;;;20.48;11.20;;;;;;;;;;5417748;26;20376;-77
2024/04/13 03:51:43;;;;;;;34.10;12.05;;;;;;;;;;5418186;26;20036;-76
2024/04/13 03:54:10;;;;;;;19.00;10.10;;;;;;;;;;5416041;26;20372;-76
2024/04/13 03:56:37;;;;;;;12.52;8.45;;;;;;;;;;5418077;26;19999;-77
2024/04/13 03:59:04;;;;;;;18.55;10.45;;;;;;;;;;5417676;26;19999;-76
2024/04/13 04:01:31;;;;;;;25.50;10.15;;;;;;;;;;5418086;26;19996;-77
2024/04/13 04:03:58;;;;;;;15.45;9.65;;;;;;;;;;5417973;26;20014;-76
2024/04/13 04:06:25;;;;;;;18.15;10.40;;;;;;;;;;5417550;26;20031;-77
2024/04/13 04:08:52;;;;;;;21.00;10.55;;;;;;;;;;5417801;26;20000;-77
2024/04/13 04:11:19;;;;;;;19.05;10.10;;;;;;;;;;5416135;26;19999;-77
2024/04/13 04:13:45;;;;;;;21.25;10.52;;;;;;;;;;5418222;26;20011;-76
2024/04/13 04:16:12;;;;;;;28.13;13.10;;;;;;;;;;5417324;26;20008;-77
2024/04/13 04:18:43;;;;;;;27.88;13.05;;;;;;;;;;5417844;26;20011;-77
2024/04/13 04:21:11;;;;;;;26.85;12.70;;;;;;;;;;5357198;26;20001;-77
2024/04/13 04:23:38;;;;;;;31.17;13.18;;;;;;;;;;5415991;26;20440;-77
2024/04/13 04:26:06;;;;;;;21.92;11.25;;;;;;;;;;5417161;26;20008;-77
2024/04/13 04:28:33;;;;;;;21.00;10.25;;;;;;;;;;5417356;26;19995;-77
2024/04/13 04:31:12;;;;;;;20.05;11.02;;;;;;;;;;5417638;26;20031;-77
2024/04/13 04:33:39;;;;;;;;;;;;;;;;;;5417934;26;20003;-77
2024/04/13 04:36:08;;;;;;;25.42;12.45;;;;;;;;;;5417372;26;19936;-77
2024/04/13 04:38:36;;;;;;;17.83;10.55;;;;;;;;;;5415531;26;19999;-77
2024/04/13 04:41:03;;;;;;;26.83;11.40;;;;;;;;;;5417626;26;20001;-76
2024/04/13 04:43:29;;;;;;;21.45;11.38;;;;;;;;;;5417220;26;20018;-77
2024/04/13 04:45:56;;;;;;;21.23;10.32;;;;;;;;;;5417065;26;20438;-76
2024/04/13 04:48:24;;;;;;;24.05;11.65;;;;;;;;;;5416977;26;20110;-77
2024/04/13 04:50:58;;;;;;;23.02;11.45;;;;;;;;;;5417222;26;20003;-76
2024/04/13 04:53:28;;;;;;;25.83;12.75;;;;;;;;;;5415001;26;20327;-77
2024/04/13 04:55:56;;;;;;;24.60;11.60;;;;;;;;;;5417205;26;20003;-77
2024/04/13 04:58:24;;;;;;;;;;;;;;;;;;5417437;26;20011;-77
2024/04/13 05:00:50;;;;;;;42.35;14.43;;;;;;;;;;5417203;26;20243;-77
2024/04/13 05:03:18;;;;;;;30.77;13.38;;;;;;;;;;5416615;26;20036;-76
2024/04/13 05:05:45;;;;;;;28.65;12.75;;;;;;;;;;5416949;26;20000;-77
2024/04/13 05:08:12;;;;;;;28.65;12.73;;;;;;;;;;5414624;26;20060;-77
2024/04/13 05:10:39;;;;;;;19.30;10.55;;;;;;;;;;5416750;26;20073;-77
2024/04/13 05:13:06;;;;;;;21.45;10.63;;;;;;;;;;5414628;26;20492;-77
2024/04/13 05:15:34;;;;;;;45.72;14.77;;;;;;;;;;5416992;26;20003;-77
2024/04/13 05:18:03;;;;;;;41.10;16.63;;;;;;;;;;5416992;26;20072;-76
2024/04/13 05:20:31;;;;;;;35.17;14.63;;;;;;;;;;5416351;26;20315;-76
2024/04/13 05:22:58;;;;;;;29.88;12.60;;;;;;;;;;5414701;26;20076;-77
2024/04/13 05:25:25;;;;;;;28.20;13.10;;;;;;;;;;5416130;26;19999;-77
2024/04/13 05:27:52;;;;;;;24.88;12.75;;;;;;;;;;5389643;26;20000;-77
2024/04/13 05:30:19;;;;;;;28.33;13.15;;;;;;;;;;5380655;26;20008;-76
2024/04/13 05:32:46;;;;;;;28.25;12.40;;;;;;;;;;5381422;26;20011;-77
2024/04/13 05:35:16;;;;;;;98.22;13.65;;;;;;;;;;5380648;26;20040;-77
2024/04/13 05:37:43;;;;;;;43.50;13.77;;;;;;;;;;5381245;26;20000;-79
2024/04/13 05:40:12;;;;;;;129.82;17.35;;;;;;;;;;5380714;26;20012;-80
2024/04/13 05:42:39;;;;;;;163.20;18.33;;;;;;;;;;5380914;26;20012;-77
2024/04/13 05:45:07;;;;;;;105.30;16.35;;;;;;;;;;5380394;26;20074;-77
2024/04/13 05:47:34;;;;;;;238.80;18.67;;;;;;;;;;5381179;26;20000;-76
2024/04/13 05:50:00;;;;;;;117.50;15.05;;;;;;;;;;5380701;26;20041;-77
2024/04/13 05:52:27;;;;;;;152.05;21.38;;;;;;;;;;5397621;26;20012;-77
2024/04/13 05:54:54;;;;;;;181.95;20.02;;;;;;;;;;5411405;26;20072;-77
2024/04/13 05:57:21;;;;;;;171.98;19.15;;;;;;;;;;5406653;26;20024;-76
2024/04/13 05:59:48;;;;;;;136.52;16.75;;;;;;;;;;5378857;26;20012;-77
2024/04/13 06:02:16;;;;;;;139.98;15.88;;;;;;;;;;5370188;26;20400;-77
2024/04/13 06:04:43;;;;;;;140.93;15.85;;;;;;;;;;5365556;26;20890;-77
2024/04/13 06:07:09;;;;;;;210.90;18.95;;;;;;;;;;5377316;26;20024;-76
2024/04/13 06:09:36;;;;;;;127.60;16.15;;;;;;;;;;5378532;26;20312;-77
2024/04/13 06:12:03;;;;;;;331.15;21.30;;;;;;;;;;5378526;26;20040;-77
2024/04/13 06:14:30;;;;;;;287.77;23.80;;;;;;;;;;5378745;26;20391;-77
2024/04/13 06:16:57;;;;;;;120.30;16.48;;;;;;;;;;5378472;26;20016;-77
2024/04/13 06:19:24;;;;;;;241.20;20.33;;;;;;;;;;5376421;26;20016;-77
2024/04/13 06:21:51;;;;;;;163.57;18.85;;;;;;;;;;5371589;26;20048;-77
2024/04/13 06:24:18;;;;;;;91.38;13.80;;;;;;;;;;5373794;26;20012;-77
2024/04/13 06:26:45;;;;;;;66.90;15.15;;;;;;;;;;5382712;26;19996;-77
2024/04/13 06:29:11;;;;;;;71.13;15.13;;;;;;;;;;5394523;26;20015;-78
2024/04/13 06:31:38;;;;;;;81.75;16.20;;;;;;;;;;5405100;26;20008;-77
2024/04/13 06:34:07;;;;;;;88.15;16.15;;;;;;;;;;5411626;26;20000;-78
2024/04/13 06:36:34;;;;;;;;;;;;;;;;;;5409857;26;20000;-77
2024/04/13 06:39:01;;;;;;;58.03;16.25;;;;;;;;;;5416480;26;20262;-77
2024/04/13 06:41:27;;;;;;;76.68;17.25;;;;;;;;;;5416983;26;19996;-76
2024/04/13 06:43:55;;;;;;;40.95;16.80;;;;;;;;;;5416972;26;20029;-77
2024/04/13 06:46:22;;;;;;;37.50;15.82;;;;;;;;;;5413238;26;20003;-79
2024/04/13 06:48:49;;;;;;;26.35;13.85;;;;;;;;;;5404205;26;19999;-78
2024/04/13 06:51:15;;;;;;;29.00;14.38;;;;;;;;;;5390941;26;20011;-77
2024/04/13 06:53:42;;;;;;;30.98;14.38;;;;;;;;;;5385538;26;20007;-77
2024/04/13 06:56:09;;;;;;;26.23;13.50;;;;;;;;;;5402978;26;20007;-76
2024/04/13 06:58:36;;;;;;;27.77;12.88;;;;;;;;;;5354932;26;20494;-77
2024/04/13 07:01:03;;;;;;;27.02;13.32;;;;;;;;;;5375295;26;20431;-77
2024/04/13 07:03:30;;;;;;;28.13;13.07;;;;;;;;;;5382474;26;20085;-78
2024/04/13 07:06:00;;;;;;;27.40;12.32;;;;;;;;;;5383023;26;20068;-77
2024/04/13 07:08:28;;;;;;;29.95;13.70;;;;;;;;;;5382640;26;19996;-77
2024/04/13 07:10:56;;;;;;;23.73;12.60;;;;;;;;;;5381181;26;20443;-77
2024/04/13 07:13:23;;;;;;;32.85;13.70;;;;;;;;;;5380876;26;19996;-77
2024/04/13 07:15:51;;;;;;;28.55;13.15;;;;;;;;;;5383318;26;20104;-77
2024/04/13 07:18:18;;;;;;;30.63;12.63;;;;;;;;;;5382641;26;20015;-77
2024/04/13 07:20:45;;;;;;;27.63;13.43;;;;;;;;;;5383316;26;19996;-78
2024/04/13 07:23:14;;;;;;;26.90;13.48;;;;;;;;;;5382425;26;20004;-77
2024/04/13 07:25:40;;;;;;;34.70;13.38;;;;;;;;;;5382867;26;20316;-77
2024/04/13 07:28:07;;;;;;;31.08;13.63;;;;;;;;;;5382094;26;20073;-77
2024/04/13 07:30:34;;;;;;;29.83;12.95;;;;;;;;;;5382916;26;20012;-78
2024/04/13 07:33:02;;;;;;;25.38;12.52;;;;;;;;;;5380752;26;20011;-77
2024/04/13 07:35:29;;;;;;;33.53;12.70;;;;;;;;;;5418155;26;20014;-77
2024/04/13 07:37:56;;;;;;;22.75;12.02;;;;;;;;;;5418343;26;20049;-77
2024/04/13 07:40:22;;;;;;;23.08;12.05;;;;;;;;;;5417980;26;20303;-77
2024/04/13 07:42:49;;;;;;;21.65;10.93;;;;;;;;;;5416823;26;19999;-77
2024/04/13 07:45:16;;;;;;;23.63;11.95;;;;;;;;;;5417473;26;20340;-77
2024/04/13 07:47:43;;;;;;;29.33;12.80;;;;;;;;;;5418098;26;20004;-76
2024/04/13 07:50:10;;;;;;;22.75;11.50;;;;;;;;;;5417515;26;20000;-77
2024/04/13 07:52:36;;;;;;;24.95;10.93;;;;;;;;;;5417741;26;20068;-77
2024/04/13 07:55:04;;;;;;;24.30;10.25;;;;;;;;;;5417971;26;20011;-77
2024/04/13 07:57:30;;;;;;;19.38;9.50;;;;;;;;;;5388699;26;20040;-77
2024/04/13 07:59:58;;;;;;;25.08;10.25;;;;;;;;;;5417337;26;20032;-77
2024/04/13 08:02:24;;;;;;;20.13;10.00;;;;;;;;;;5417406;26;20012;-77
2024/04/13 08:04:51;;;;;;;23.08;9.73;;;;;;;;;;5417739;26;20454;-77
2024/04/13 08:07:18;;;;;;;15.00;9.15;;;;;;;;;;5417082;26;20347;-77
2024/04/13 08:09:45;;;;;;;23.55;9.30;;;;;;;;;;5417742;26;20076;-77
2024/04/13 08:12:12;;;;;;;17.95;9.90;;;;;;;;;;5417006;26;20434;-77
2024/04/13 08:14:39;;;;;;;17.15;9.13;;;;;;;;;;5417624;26;19999;-77
2024/04/13 08:17:06;;;;;;;20.77;10.38;;;;;;;;;;5417245;26;20072;-77
2024/04/13 08:19:33;;;;;;;16.27;9.60;;;;;;;;;;5417519;26;20010;-77
2024/04/13 08:22:00;;;;;;;22.02;11.45;;;;;;;;;;5417446;26;19996;-77
2024/04/13 08:24:26;;;;;;;22.40;12.40;;;;;;;;;;5417345;26;20301;-77
2024/04/13 08:26:53;;;;;;;19.23;11.63;;;;;;;;;;5404805;26;20008;-77
2024/04/13 08:29:20;;;;;;;22.75;12.52;;;;;;;;;;5381193;26;20431;-77
2024/04/13 08:31:47;;;;;;;20.75;10.05;;;;;;;;;;5381894;26;19996;-77
2024/04/13 08:34:17;;;;;;;16.10;8.20;;;;;;;;;;5381472;26;20008;-78
2024/04/13 08:36:45;;;;;;;18.90;7.60;;;;;;;;;;5380085;26;20004;-77
2024/04/13 08:39:12;;;;;;;15.38;7.55;;;;;;;;;;5379636;26;20462;-77
2024/04/13 08:42:07;;;;;;;18.02;6.90;;;;;;;;;;5381719;26;20011;-77
2024/04/13 08:44:34;;;;;;;12.02;6.20;;;;;;;;;;5381510;26;20126;-77
2024/04/13 08:47:02;;;;;;;16.80;6.93;;;;;;;;;;5381682;26;20043;-77
2024/04/13 08:49:36;;;;;;;13.35;6.35;;;;;;;;;;5381417;26;20000;-77
2024/04/13 08:52:06;;;;;;;15.63;6.43;;;;;;;;;;5379045;26;20001;-77
2024/04/13 08:54:33;;;;;;;13.48;5.68;;;;;;;;;;5381983;26;20068;-77
2024/04/13 08:57:05;;;;;;;11.95;5.68;;;;;;;;;;5399299;26;20004;-77
2024/04/13 08:59:33;;;;;;;17.05;6.20;;;;;;;;;;5394885;26;20073;-77
2024/04/13 09:02:04;;;;;;;14.80;5.70;;;;;;;;;;5399294;26;20312;-77
2024/04/13 09:04:34;;;;;;;12.05;5.15;;;;;;;;;;5390305;26;20008;-76
2024/04/13 09:07:01;;;;;;;10.50;5.28;;;;;;;;;;5362283;26;20011;-77
2024/04/13 09:09:29;;;;;;;11.93;5.07;;;;;;;;;;5380120;26;20004;-76
2024/04/13 09:11:57;;;;;;;11.63;4.90;;;;;;;;;;5380562;26;20070;-76
2024/04/13 09:14:26;;;;;;;12.43;4.83;;;;;;;;;;5380434;26;20012;-77
2024/04/13 09:16:53;;;;;;;12.57;4.68;;;;;;;;;;5376382;26;20027;-77
2024/04/13 09:19:19;;;;;;;9.70;4.05;;;;;;;;;;5380131;26;20004;-77
2024/04/13 09:21:47;;;;;;;12.32;5.00;;;;;;;;;;5380149;26;20020;-77
2024/04/13 09:24:14;;;;;;;11.50;4.93;;;;;;;;;;5363469;26;20428;-77
2024/04/13 09:26:44;;;;;;;12.48;4.82;;;;;;;;;;5404296;26;20010;-77
2024/04/13 09:29:13;;;;;;;13.98;4.13;;;;;;;;;;5399945;26;19996;-77
2024/04/13 09:31:40;;;;;;;11.25;4.57;;;;;;;;;;5396450;26;20072;-77
2024/04/13 09:34:07;;;;;;;11.43;4.40;;;;;;;;;;5399144;26;20004;-76
2024/04/13 09:36:34;;;;;;;11.65;4.25;;;;;;;;;;5396675;26;20073;-76
2024/04/13 09:39:04;;;;;;;10.35;4.13;;;;;;;;;;5396675;26;19996;-76
2024/04/13 09:41:31;;;;;;;9.50;3.63;;;;;;;;;;5399573;26;19999;-77
2024/04/13 09:43:58;;;;;;;10.70;3.85;;;;;;;;;;5397244;26;20008;-77
2024/04/13 09:46:25;;;;;;;12.07;3.83;;;;;;;;;;5410759;26;19996;-76
2024/04/13 09:48:54;;;;;;;7.68;4.03;;;;;;;;;;5416245;26;20049;-77
2024/04/13 09:51:25;;;;;;;9.07;3.67;;;;;;;;;;5415708;26;20039;-77
2024/04/13 09:53:54;;;;;;;9.82;4.20;;;;;;;;;;5416064;26;19999;-76
2024/04/13 09:56:21;;;;;;;8.80;3.95;;;;;;;;;;5415818;26;20010;-77
2024/04/13 09:58:50;;;;;;;11.10;3.85;;;;;;;;;;5415987;26;20080;-77
2024/04/13 10:01:17;;;;;;;11.98;4.53;;;;;;;;;;5412417;26;20000;-77
2024/04/13 10:03:44;;;;;;;7.40;3.70;;;;;;;;;;5394299;26;19996;-77
2024/04/13 10:06:15;;;;;;;7.85;3.13;;;;;;;;;;5395579;26;20010;-76
2024/04/13 10:08:43;;;;;;;8.68;3.60;;;;;;;;;;5396312;26;19995;-77
2024/04/13 10:11:13;;;;;;;12.88;5.63;;;;;;;;;;5398306;26;20000;-76
2024/04/13 10:13:44;;;;;;;16.75;6.82;;;;;;;;;;5400140;26;20523;-76
2024/04/13 10:16:13;;;;;;;9.55;4.72;;;;;;;;;;5399241;26;20007;-77
2024/04/13 10:18:41;;;;;;;9.35;3.05;;;;;;;;;;5398286;26;20003;-77
2024/04/13 10:21:08;;;;;;;10.18;3.95;;;;;;;;;;5402215;26;19995;-77
2024/04/13 10:23:39;;;;;;;9.27;3.10;;;;;;;;;;5400134;26;20319;-76
2024/04/13 10:26:07;;;;;;;6.38;3.10;;;;;;;;;;5401205;26;20419;-77
2024/04/13 10:28:34;;;;;;;9.98;3.40;;;;;;;;;;5406054;26;20434;-77
2024/04/13 10:31:03;;;;;;;10.00;3.50;;;;;;;;;;5398398;26;20011;-77
2024/04/13 10:33:31;;;;;;;9.57;3.47;;;;;;;;;;5395818;26;20015;-77
2024/04/13 10:36:04;;;;;;;9.63;4.05;;;;;;;;;;5393495;26;20023;-77
2024/04/13 10:38:33;;;;;;;13.73;4.05;;;;;;;;;;5398198;26;20389;-77
2024/04/13 10:41:04;;;;;;;10.70;3.40;;;;;;;;;;5394862;26;20083;-77
2024/04/13 10:43:31;;;;;;;7.88;3.60;;;;;;;;;;5395548;26;20055;-76
2024/04/13 10:46:02;;;;;;;11.63;4.43;;;;;;;;;;5401061;26;19999;-77
2024/04/13 10:48:31;;;;;;;10.30;3.70;;;;;;;;;;5401942;26;20077;-77
2024/04/13 10:51:00;;;;;;;11.98;4.20;;;;;;;;;;5399850;26;20077;-76
2024/04/13 10:53:28;;;;;;;10.63;3.78;;;;;;;;;;5398505;26;19999;-77
2024/04/13 10:55:56;;;;;;;;;;;;;;;;;;5399737;26;20000;-77
2024/04/13 10:58:32;;;;;;;14.77;5.20;;;;;;;;;;5399458;26;20045;-77
2024/04/13 11:00:59;;;;;;;15.63;4.45;;;;;;;;;;5399358;26;20468;-77
2024/04/13 11:03:27;;;;;;;13.48;4.85;;;;;;;;;;5398897;26;20438;-76
2024/04/13 11:05:55;;;;;;;13.65;4.43;;;;;;;;;;5392353;26;19996;-76
2024/04/13 11:08:23;;;;;;;13.38;4.90;;;;;;;;;;5378959;26;20016;-77
2024/04/13 11:10:54;;;;;;;10.70;4.53;;;;;;;;;;5378075;26;20011;-77
2024/04/13 11:13:23;;;;;;;8.38;3.92;;;;;;;;;;5380197;26;20000;-76
2024/04/13 11:15:50;;;;;;;13.93;4.53;;;;;;;;;;5380704;26;20055;-76
2024/04/13 11:18:19;;;;;;;17.17;5.30;;;;;;;;;;5382642;26;20000;-77
2024/04/13 11:20:51;;;;;;;12.45;5.10;;;;;;;;;;5382399;26;20011;-80
2024/04/13 11:23:19;;;;;;;13.10;5.38;;;;;;;;;;5382717;26;20337;-77
2024/04/13 11:25:45;;;;;;;18.85;6.10;;;;;;;;;;5390638;26;20060;-77
2024/04/13 11:28:13;;;;;;;14.70;6.15;;;;;;;;;;5384828;26;20000;-77
2024/04/13 11:30:41;;;;;;;15.07;5.35;;;;;;;;;;5377252;26;20004;-77
2024/04/13 11:33:10;;;;;;;14.68;5.55;;;;;;;;;;5378504;26;20019;-77
2024/04/13 11:35:37;;;;;;;12.65;5.00;;;;;;;;;;5378951;26;20000;-77
2024/04/13 11:38:04;;;;;;;13.32;5.68;;;;;;;;;;5378262;26;20120;-76
2024/04/13 11:40:37;;;;;;;12.93;4.45;;;;;;;;;;5378979;26;20004;-77
2024/04/13 11:43:05;;;;;;;15.55;5.00;;;;;;;;;;5379437;26;20000;-77
2024/04/13 11:45:32;;;;;;;11.75;4.38;;;;;;;;;;5382601;26;20012;-77
2024/04/13 11:48:02;;;;;;;15.13;4.90;;;;;;;;;;5382737;26;20315;-77
2024/04/13 11:50:29;;;;;;;13.82;4.95;;;;;;;;;;5382317;26;20011;-77
2024/04/13 11:52:56;;;;;;;14.20;5.50;;;;;;;;;;5382589;26;20035;-77
2024/04/13 11:55:24;;;;;;;14.70;4.55;;;;;;;;;;5381999;26;19996;-77
2024/04/13 11:57:51;;;;;;;10.35;4.07;;;;;;;;;;5382645;26;20008;-77
2024/04/13 12:00:19;;;;;;;12.77;4.55;;;;;;;;;;5381078;26;20000;-77
2024/04/13 12:02:47;;;;;;;15.48;4.68;;;;;;;;;;5382392;26;20014;-77
2024/04/13 12:05:14;;;;;;;8.90;3.72;;;;;;;;;;5381725;26;20384;-76
2024/04/13 12:07:43;;;;;;;12.60;5.88;;;;;;;;;;5382511;26;20077;-77
2024/04/13 12:10:10;;;;;;;11.40;4.15;;;;;;;;;;5381931;26;19996;-77
2024/04/13 12:12:37;;;;;;;11.95;4.80;;;;;;;;;;5379136;26;20000;-76
2024/04/13 12:15:04;;;;;;;12.20;5.03;;;;;;;;;;5378176;26;20492;-76
2024/04/13 12:17:31;;;;;;;9.27;3.75;;;;;;;;;;5401590;26;20015;-77
2024/04/13 12:20:00;;;;;;;8.70;4.30;;;;;;;;;;5415601;26;20035;-77
2024/04/13 12:22:27;;;;;;;11.95;4.60;;;;;;;;;;5406901;26;20010;-76
2024/04/13 12:24:54;;;;;;;10.10;4.72;;;;;;;;;;5408119;26;20011;-77
2024/04/13 12:27:22;;;;;;;11.40;5.43;;;;;;;;;;5412259;26;20000;-77
2024/04/13 12:29:49;;;;;;;9.67;4.13;;;;;;;;;;5406507;26;19996;-77
2024/04/13 12:32:15;;;;;;;6.72;3.10;;;;;;;;;;5411830;26;20004;-77
2024/04/13 12:34:42;;;;;;;8.27;5.10;;;;;;;;;;5412223;26;20464;-77
2024/04/13 12:37:09;;;;;;;6.53;4.00;;;;;;;;;;5412062;26;20072;-77
2024/04/13 12:39:36;;;;;;;8.18;2.72;;;;;;;;;;5412058;26;20061;-77
2024/04/13 12:42:03;;;;;;;6.55;3.28;;;;;;;;;;5412981;26;20007;-77
2024/04/13 12:44:30;;;;;;;7.18;3.70;;;;;;;;;;5376197;26;20066;-77
2024/04/13 12:46:57;;;;;;;9.80;3.72;;;;;;;;;;5377378;26;20012;-77
2024/04/13 12:49:24;;;;;;;4.45;2.95;;;;;;;;;;5376822;26;20008;-77
2024/04/13 12:51:51;;;;;;;5.22;2.70;;;;;;;;;;5377075;26;20011;-77
2024/04/13 12:54:18;;;;;;;4.97;3.17;;;;;;;;;;5376834;26;20010;-77
2024/04/13 12:56:45;;;;;;;6.47;2.65;;;;;;;;;;5376637;26;20327;-77
2024/04/13 12:59:12;;;;;;;4.90;3.10;;;;;;;;;;5376987;26;19996;-77
2024/04/13 13:01:39;;;;;;;5.20;2.70;;;;;;;;;;5376465;26;20273;-77
2024/04/13 13:04:06;;;;;;;7.63;2.97;;;;;;;;;;5377056;26;19996;-77
2024/04/13 13:06:33;;;;;;;4.95;2.70;;;;;;;;;;5376245;26;20004;-77
2024/04/13 13:09:00;;;;;;;6.45;3.00;;;;;;;;;;5376190;26;20004;-77
2024/04/13 13:11:27;;;;;;;6.47;3.55;;;;;;;;;;5414369;26;20004;-77
2024/04/13 13:13:54;;;;;;;7.80;4.28;;;;;;;;;;5411617;26;20010;-77
2024/04/13 13:16:21;;;;;;;13.25;10.27;;;;;;;;;;5416007;26;20031;-76
2024/04/13 13:18:48;;;;;;;10.18;6.32;;;;;;;;;;5398493;26;20000;-77
2024/04/13 13:21:16;;;;;;;4.30;2.50;;;;;;;;;;5363849;26;20348;-77
2024/04/13 13:23:44;;;;;;;5.05;2.67;;;;;;;;;;5362887;26;20306;-77
2024/04/13 13:26:11;;;;;;;3.47;2.33;;;;;;;;;;5360785;26;20000;-77
2024/04/13 13:28:38;;;;;;;5.40;2.75;;;;;;;;;;5375324;26;20008;-77
2024/04/13 13:31:05;;;;;;;4.07;2.20;;;;;;;;;;5380959;26;19996;-77
2024/04/13 13:33:32;;;;;;;2.78;1.75;;;;;;;;;;5379845;26;20001;-77
2024/04/13 13:35:59;;;;;;;5.10;2.10;;;;;;;;;;5375361;26;20012;-77
2024/04/13 13:38:26;;;;;;;2.67;1.92;;;;;;;;;;5346056;26;20005;-77
2024/04/13 13:40:53;;;;;;;2.03;1.50;;;;;;;;;;5376569;26;19999;-77
2024/04/13 13:43:20;;;;;;;1.42;0.95;;;;;;;;;;5404907;26;20441;-77
2024/04/13 13:45:47;;;;;;;2.00;1.10;;;;;;;;;;5393664;26;20073;-77
2024/04/13 13:48:13;;;;;;;1.63;0.90;;;;;;;;;;5401372;26;19996;-78
2024/04/13 13:50:41;;;;;;;1.27;0.75;;;;;;;;;;5419676;26;19996;-77
2024/04/13 13:53:08;;;;;;;3.35;1.20;;;;;;;;;;5416956;26;20036;-77
2024/04/13 13:55:35;;;;;;;1.95;1.30;;;;;;;;;;5417824;26;20018;-77
2024/04/13 13:58:03;;;;;;;2.00;1.30;;;;;;;;;;5419794;26;20009;-77
2024/04/13 14:00:29;;;;;;;1.55;1.23;;;;;;;;;;5419414;26;20426;-78
2024/04/13 14:02:56;;;;;;;3.60;1.38;;;;;;;;;;5420735;26;20017;-77
2024/04/13 14:05:26;;;;;;;2.72;1.40;;;;;;;;;;5419155;26;20018;-77
2024/04/13 14:07:53;;;;;;;2.47;1.50;;;;;;;;;;5418988;26;20007;-77
2024/04/13 14:10:20;;;;;;;3.38;2.00;;;;;;;;;;5419084;26;20071;-76
2024/04/13 14:12:46;;;;;;;3.58;1.85;;;;;;;;;;5419224;26;20008;-77
2024/04/13 14:15:13;;;;;;;3.33;1.50;;;;;;;;;;5410007;26;20032;-77
2024/04/13 14:17:40;;;;;;;3.58;1.60;;;;;;;;;;5381870;26;20001;-77
2024/04/13 14:20:07;;;;;;;1.73;1.40;;;;;;;;;;5383637;26;20000;-77
2024/04/13 14:22:34;;;;;;;3.03;1.73;;;;;;;;;;5383751;26;20004;-77
2024/04/13 14:25:01;;;;;;;4.88;2.15;;;;;;;;;;5383742;26;20000;-78
2024/04/13 14:27:28;;;;;;;3.50;2.25;;;;;;;;;;5395148;26;20009;-77
2024/04/13 14:29:55;;;;;;;4.18;2.10;;;;;;;;;;5383525;26;20004;-77